sensor_id;sensor_type;location;lat;lon;timestamp;P1;durP1;ratioP1;P2;durP2;ratioP2
11588;SDS011;5850;51.360;12.362;2022-12-29T00:01:00;1.77;;;1.50;;
11588;SDS011;5850;51.360;12.362;2022-12-29T00:03:28;2.57;;;1.47;;
11588;SDS011;5850;51.360;12.362;2022-12-29T00:05:57;3.67;;;1.90;;
11588;SDS011;5850;51.360;12.362;2022-12-29T00:08:25;1.50;;;1.40;;
11588;SDS011;5850;51.360;12.362;2022-12-29T00:11:16;2.33;;;1.40;;
11588;SDS011;5850;51.360;12.362;2022-12-29T00:13:55;2.20;;;1.50;;
11588;SDS011;5850;51.360;12.362;2022-12-29T00:16:46;3.33;;;1.53;;
11588;SDS011;5850;51.360;12.362;2022-12-29T00:19:15;2.00;;;1.30;;
11588;SDS011;5850;51.360;12.362;2022-12-29T00:22:00;2.80;;;1.60;;
11588;SDS011;5850;51.360;12.362;2022-12-29T00:24:46;1.87;;;1.37;;
11588;SDS011;5850;51.360;12.362;2022-12-29T00:27:37;1.77;;;1.50;;
11588;SDS011;5850;51.360;12.362;2022-12-29T00:30:31;1.43;;;1.23;;
11588;SDS011;5850;51.360;12.362;2022-12-29T00:33:18;3.43;;;1.40;;
11588;SDS011;5850;51.360;12.362;2022-12-29T00:36:16;1.47;;;1.37;;
11588;SDS011;5850;51.360;12.362;2022-12-29T00:39:12;1.23;;;1.13;;
11588;SDS011;5850;51.360;12.362;2022-12-29T00:42:05;2.03;;;1.33;;
11588;SDS011;5850;51.360;12.362;2022-12-29T00:44:52;2.23;;;1.20;;
11588;SDS011;5850;51.360;12.362;2022-12-29T00:47:20;1.53;;;1.40;;
11588;SDS011;5850;51.360;12.362;2022-12-29T00:49:49;2.30;;;1.63;;
11588;SDS011;5850;51.360;12.362;2022-12-29T00:52:17;1.97;;;1.30;;
11588;SDS011;5850;51.360;12.362;2022-12-29T00:54:45;1.43;;;1.30;;
11588;SDS011;5850;51.360;12.362;2022-12-29T00:57:14;3.10;;;1.37;;
11588;SDS011;5850;51.360;12.362;2022-12-29T00:59:43;1.77;;;1.40;;
11588;SDS011;5850;51.360;12.362;2022-12-29T01:02:11;1.77;;;1.60;;
11588;SDS011;5850;51.360;12.362;2022-12-29T01:04:39;1.53;;;1.30;;
11588;SDS011;5850;51.360;12.362;2022-12-29T01:07:08;1.60;;;1.50;;
11588;SDS011;5850;51.360;12.362;2022-12-29T01:09:36;3.90;;;1.70;;
11588;SDS011;5850;51.360;12.362;2022-12-29T01:12:22;1.30;;;1.20;;
11588;SDS011;5850;51.360;12.362;2022-12-29T01:15:04;1.77;;;1.23;;
11588;SDS011;5850;51.360;12.362;2022-12-29T01:17:34;2.53;;;1.80;;
11588;SDS011;5850;51.360;12.362;2022-12-29T01:20:03;1.43;;;1.30;;
11588;SDS011;5850;51.360;12.362;2022-12-29T01:22:32;1.80;;;1.53;;
11588;SDS011;5850;51.360;12.362;2022-12-29T01:25:00;1.20;;;1.07;;
11588;SDS011;5850;51.360;12.362;2022-12-29T01:27:29;1.50;;;1.23;;
11588;SDS011;5850;51.360;12.362;2022-12-29T01:29:57;1.83;;;1.40;;
11588;SDS011;5850;51.360;12.362;2022-12-29T01:32:25;2.40;;;1.67;;
11588;SDS011;5850;51.360;12.362;2022-12-29T01:34:54;2.10;;;1.40;;
11588;SDS011;5850;51.360;12.362;2022-12-29T01:37:22;2.83;;;1.70;;
11588;SDS011;5850;51.360;12.362;2022-12-29T01:39:51;2.10;;;1.50;;
11588;SDS011;5850;51.360;12.362;2022-12-29T01:42:22;2.90;;;1.70;;
11588;SDS011;5850;51.360;12.362;2022-12-29T01:44:56;3.17;;;1.63;;
11588;SDS011;5850;51.360;12.362;2022-12-29T01:47:33;3.30;;;1.30;;
11588;SDS011;5850;51.360;12.362;2022-12-29T01:50:26;1.50;;;1.30;;
11588;SDS011;5850;51.360;12.362;2022-12-29T01:53:02;3.33;;;1.30;;
11588;SDS011;5850;51.360;12.362;2022-12-29T01:55:56;2.10;;;1.40;;
11588;SDS011;5850;51.360;12.362;2022-12-29T01:58:31;1.77;;;1.30;;
11588;SDS011;5850;51.360;12.362;2022-12-29T02:01:05;1.83;;;1.30;;
11588;SDS011;5850;51.360;12.362;2022-12-29T02:03:34;1.53;;;1.43;;
11588;SDS011;5850;51.360;12.362;2022-12-29T02:06:08;2.83;;;1.27;;
11588;SDS011;5850;51.360;12.362;2022-12-29T02:08:52;1.77;;;1.10;;
11588;SDS011;5850;51.360;12.362;2022-12-29T02:11:26;3.57;;;1.40;;
11588;SDS011;5850;51.360;12.362;2022-12-29T02:13:56;1.40;;;1.27;;
11588;SDS011;5850;51.360;12.362;2022-12-29T02:25:22;2.43;;;1.70;;
11588;SDS011;5850;51.360;12.362;2022-12-29T02:28:33;2.13;;;1.60;;
11588;SDS011;5850;51.360;12.362;2022-12-29T02:34:14;2.27;;;1.33;;
11588;SDS011;5850;51.360;12.362;2022-12-29T02:45:32;2.67;;;1.60;;
11588;SDS011;5850;51.360;12.362;2022-12-29T02:48:10;1.50;;;1.33;;
11588;SDS011;5850;51.360;12.362;2022-12-29T02:54:00;1.70;;;1.47;;
11588;SDS011;5850;51.360;12.362;2022-12-29T02:56:46;2.97;;;1.90;;
11588;SDS011;5850;51.360;12.362;2022-12-29T02:59:14;1.80;;;1.10;;
11588;SDS011;5850;51.360;12.362;2022-12-29T03:07:52;2.30;;;1.33;;
11588;SDS011;5850;51.360;12.362;2022-12-29T03:10:44;2.53;;;1.50;;
11588;SDS011;5850;51.360;12.362;2022-12-29T03:13:56;1.17;;;1.07;;
11588;SDS011;5850;51.360;12.362;2022-12-29T03:16:58;1.70;;;1.37;;
11588;SDS011;5850;51.360;12.362;2022-12-29T03:19:32;1.90;;;1.80;;
11588;SDS011;5850;51.360;12.362;2022-12-29T03:22:07;1.60;;;1.50;;
11588;SDS011;5850;51.360;12.362;2022-12-29T03:27:33;2.30;;;1.50;;
11588;SDS011;5850;51.360;12.362;2022-12-29T03:30:07;1.80;;;1.53;;
11588;SDS011;5850;51.360;12.362;2022-12-29T03:32:38;2.07;;;1.50;;
11588;SDS011;5850;51.360;12.362;2022-12-29T03:35:13;2.40;;;1.20;;
11588;SDS011;5850;51.360;12.362;2022-12-29T03:40:47;1.63;;;1.50;;
11588;SDS011;5850;51.360;12.362;2022-12-29T03:43:20;1.40;;;1.30;;
11588;SDS011;5850;51.360;12.362;2022-12-29T03:45:49;1.90;;;1.50;;
11588;SDS011;5850;51.360;12.362;2022-12-29T03:48:18;1.30;;;1.20;;
11588;SDS011;5850;51.360;12.362;2022-12-29T03:50:46;2.43;;;1.50;;
11588;SDS011;5850;51.360;12.362;2022-12-29T03:53:15;1.83;;;1.60;;
11588;SDS011;5850;51.360;12.362;2022-12-29T03:55:43;2.00;;;1.57;;
11588;SDS011;5850;51.360;12.362;2022-12-29T03:58:12;2.23;;;1.30;;
11588;SDS011;5850;51.360;12.362;2022-12-29T04:00:40;1.57;;;1.33;;
11588;SDS011;5850;51.360;12.362;2022-12-29T04:03:09;3.23;;;1.50;;
11588;SDS011;5850;51.360;12.362;2022-12-29T04:05:37;1.53;;;1.33;;
11588;SDS011;5850;51.360;12.362;2022-12-29T04:08:06;4.37;;;1.70;;
11588;SDS011;5850;51.360;12.362;2022-12-29T04:10:34;1.40;;;1.30;;
11588;SDS011;5850;51.360;12.362;2022-12-29T04:13:03;1.50;;;1.40;;
11588;SDS011;5850;51.360;12.362;2022-12-29T04:15:32;1.70;;;1.50;;
11588;SDS011;5850;51.360;12.362;2022-12-29T04:18:00;2.20;;;1.50;;
11588;SDS011;5850;51.360;12.362;2022-12-29T04:20:29;3.07;;;1.57;;
11588;SDS011;5850;51.360;12.362;2022-12-29T04:23:15;3.23;;;1.60;;
11588;SDS011;5850;51.360;12.362;2022-12-29T04:25:45;1.40;;;1.30;;
11588;SDS011;5850;51.360;12.362;2022-12-29T04:28:14;1.67;;;1.50;;
11588;SDS011;5850;51.360;12.362;2022-12-29T04:30:44;1.70;;;1.33;;
11588;SDS011;5850;51.360;12.362;2022-12-29T04:33:13;1.60;;;1.40;;
11588;SDS011;5850;51.360;12.362;2022-12-29T04:35:44;1.40;;;1.30;;
11588;SDS011;5850;51.360;12.362;2022-12-29T04:38:12;2.07;;;1.30;;
11588;SDS011;5850;51.360;12.362;2022-12-29T04:40:42;1.80;;;1.43;;
11588;SDS011;5850;51.360;12.362;2022-12-29T04:43:11;1.10;;;1.07;;
11588;SDS011;5850;51.360;12.362;2022-12-29T04:45:44;3.00;;;1.40;;
11588;SDS011;5850;51.360;12.362;2022-12-29T04:48:14;2.27;;;1.50;;
11588;SDS011;5850;51.360;12.362;2022-12-29T04:50:44;1.40;;;1.30;;
11588;SDS011;5850;51.360;12.362;2022-12-29T04:53:16;1.47;;;1.30;;
11588;SDS011;5850;51.360;12.362;2022-12-29T04:55:48;2.23;;;1.13;;
11588;SDS011;5850;51.360;12.362;2022-12-29T04:58:20;1.20;;;1.10;;
11588;SDS011;5850;51.360;12.362;2022-12-29T05:00:49;1.80;;;1.10;;
11588;SDS011;5850;51.360;12.362;2022-12-29T05:03:18;1.50;;;1.30;;
11588;SDS011;5850;51.360;12.362;2022-12-29T05:05:47;1.60;;;1.30;;
11588;SDS011;5850;51.360;12.362;2022-12-29T05:08:15;1.37;;;1.27;;
11588;SDS011;5850;51.360;12.362;2022-12-29T05:10:51;2.27;;;1.37;;
11588;SDS011;5850;51.360;12.362;2022-12-29T05:13:19;1.20;;;1.10;;
11588;SDS011;5850;51.360;12.362;2022-12-29T05:15:49;1.23;;;1.13;;
11588;SDS011;5850;51.360;12.362;2022-12-29T05:18:19;1.83;;;1.13;;
11588;SDS011;5850;51.360;12.362;2022-12-29T05:20:47;1.93;;;1.30;;
11588;SDS011;5850;51.360;12.362;2022-12-29T05:23:16;2.80;;;1.33;;
11588;SDS011;5850;51.360;12.362;2022-12-29T05:25:44;1.43;;;1.33;;
11588;SDS011;5850;51.360;12.362;2022-12-29T05:28:12;1.33;;;1.20;;
11588;SDS011;5850;51.360;12.362;2022-12-29T05:30:41;1.90;;;1.37;;
11588;SDS011;5850;51.360;12.362;2022-12-29T05:33:09;1.30;;;1.13;;
11588;SDS011;5850;51.360;12.362;2022-12-29T05:35:37;1.00;;;1.00;;
11588;SDS011;5850;51.360;12.362;2022-12-29T05:38:06;1.40;;;1.30;;
11588;SDS011;5850;51.360;12.362;2022-12-29T05:40:34;1.27;;;1.17;;
11588;SDS011;5850;51.360;12.362;2022-12-29T05:43:03;1.90;;;1.33;;
11588;SDS011;5850;51.360;12.362;2022-12-29T05:45:31;2.03;;;1.30;;
11588;SDS011;5850;51.360;12.362;2022-12-29T05:47:59;1.40;;;1.20;;
11588;SDS011;5850;51.360;12.362;2022-12-29T05:50:27;1.47;;;1.37;;
11588;SDS011;5850;51.360;12.362;2022-12-29T05:52:56;2.70;;;1.40;;
11588;SDS011;5850;51.360;12.362;2022-12-29T05:55:24;2.90;;;1.60;;
11588;SDS011;5850;51.360;12.362;2022-12-29T05:57:52;2.70;;;1.50;;
11588;SDS011;5850;51.360;12.362;2022-12-29T06:00:20;2.90;;;1.40;;
11588;SDS011;5850;51.360;12.362;2022-12-29T06:02:48;2.23;;;1.40;;
11588;SDS011;5850;51.360;12.362;2022-12-29T06:05:17;2.53;;;1.87;;
11588;SDS011;5850;51.360;12.362;2022-12-29T06:07:45;1.93;;;1.23;;
11588;SDS011;5850;51.360;12.362;2022-12-29T06:10:13;3.00;;;1.30;;
11588;SDS011;5850;51.360;12.362;2022-12-29T06:12:42;1.30;;;1.20;;
11588;SDS011;5850;51.360;12.362;2022-12-29T06:15:10;1.30;;;1.20;;
11588;SDS011;5850;51.360;12.362;2022-12-29T06:17:38;1.63;;;1.53;;
11588;SDS011;5850;51.360;12.362;2022-12-29T06:20:07;1.40;;;1.30;;
11588;SDS011;5850;51.360;12.362;2022-12-29T06:22:37;1.37;;;1.27;;
11588;SDS011;5850;51.360;12.362;2022-12-29T06:25:05;1.40;;;1.30;;
11588;SDS011;5850;51.360;12.362;2022-12-29T06:27:34;2.00;;;1.67;;
11588;SDS011;5850;51.360;12.362;2022-12-29T06:30:02;1.40;;;1.30;;
11588;SDS011;5850;51.360;12.362;2022-12-29T06:32:31;1.70;;;1.10;;
11588;SDS011;5850;51.360;12.362;2022-12-29T06:34:59;1.63;;;1.20;;
11588;SDS011;5850;51.360;12.362;2022-12-29T06:37:27;1.57;;;1.40;;
11588;SDS011;5850;51.360;12.362;2022-12-29T06:39:56;2.10;;;1.77;;
11588;SDS011;5850;51.360;12.362;2022-12-29T06:42:24;3.87;;;1.40;;
11588;SDS011;5850;51.360;12.362;2022-12-29T06:44:52;2.43;;;1.47;;
11588;SDS011;5850;51.360;12.362;2022-12-29T06:47:23;1.60;;;1.30;;
11588;SDS011;5850;51.360;12.362;2022-12-29T06:49:52;1.30;;;0.90;;
11588;SDS011;5850;51.360;12.362;2022-12-29T06:52:20;2.07;;;1.50;;
11588;SDS011;5850;51.360;12.362;2022-12-29T06:54:50;2.33;;;1.47;;
11588;SDS011;5850;51.360;12.362;2022-12-29T06:57:18;2.23;;;1.30;;
11588;SDS011;5850;51.360;12.362;2022-12-29T06:59:47;3.23;;;1.40;;
11588;SDS011;5850;51.360;12.362;2022-12-29T07:02:15;0.70;;;0.70;;
11588;SDS011;5850;51.360;12.362;2022-12-29T07:04:44;1.53;;;1.20;;
11588;SDS011;5850;51.360;12.362;2022-12-29T07:07:13;1.77;;;1.20;;
11588;SDS011;5850;51.360;12.362;2022-12-29T07:09:42;2.77;;;1.37;;
11588;SDS011;5850;51.360;12.362;2022-12-29T07:12:10;2.07;;;1.40;;
11588;SDS011;5850;51.360;12.362;2022-12-29T07:14:39;3.00;;;1.27;;
11588;SDS011;5850;51.360;12.362;2022-12-29T07:17:08;1.30;;;1.20;;
11588;SDS011;5850;51.360;12.362;2022-12-29T07:19:37;3.13;;;1.93;;
11588;SDS011;5850;51.360;12.362;2022-12-29T07:22:05;2.27;;;1.60;;
11588;SDS011;5850;51.360;12.362;2022-12-29T07:24:34;1.70;;;1.40;;
11588;SDS011;5850;51.360;12.362;2022-12-29T07:27:03;1.97;;;1.30;;
11588;SDS011;5850;51.360;12.362;2022-12-29T07:29:31;1.50;;;1.30;;
11588;SDS011;5850;51.360;12.362;2022-12-29T07:32:00;5.00;;;2.67;;
11588;SDS011;5850;51.360;12.362;2022-12-29T07:34:29;3.43;;;2.50;;
11588;SDS011;5850;51.360;12.362;2022-12-29T07:36:57;2.37;;;2.00;;
11588;SDS011;5850;51.360;12.362;2022-12-29T07:39:25;3.80;;;2.10;;
11588;SDS011;5850;51.360;12.362;2022-12-29T07:41:53;2.70;;;1.70;;
11588;SDS011;5850;51.360;12.362;2022-12-29T07:44:29;2.07;;;1.30;;
11588;SDS011;5850;51.360;12.362;2022-12-29T07:46:58;1.67;;;1.57;;
11588;SDS011;5850;51.360;12.362;2022-12-29T07:49:27;1.67;;;1.27;;
11588;SDS011;5850;51.360;12.362;2022-12-29T07:51:55;5.50;;;2.20;;
11588;SDS011;5850;51.360;12.362;2022-12-29T07:54:24;2.53;;;2.20;;
11588;SDS011;5850;51.360;12.362;2022-12-29T07:56:52;2.20;;;1.57;;
11588;SDS011;5850;51.360;12.362;2022-12-29T07:59:21;1.53;;;1.33;;
11588;SDS011;5850;51.360;12.362;2022-12-29T08:01:49;1.87;;;1.20;;
11588;SDS011;5850;51.360;12.362;2022-12-29T08:04:18;3.33;;;1.50;;
11588;SDS011;5850;51.360;12.362;2022-12-29T08:06:46;2.37;;;1.60;;
11588;SDS011;5850;51.360;12.362;2022-12-29T08:09:15;3.83;;;1.70;;
11588;SDS011;5850;51.360;12.362;2022-12-29T08:11:49;2.10;;;1.40;;
11588;SDS011;5850;51.360;12.362;2022-12-29T08:14:18;2.60;;;1.40;;
11588;SDS011;5850;51.360;12.362;2022-12-29T08:16:46;1.43;;;1.30;;
11588;SDS011;5850;51.360;12.362;2022-12-29T08:19:15;1.43;;;1.13;;
11588;SDS011;5850;51.360;12.362;2022-12-29T08:21:43;1.50;;;1.30;;
11588;SDS011;5850;51.360;12.362;2022-12-29T08:24:11;1.40;;;1.30;;
11588;SDS011;5850;51.360;12.362;2022-12-29T08:26:40;1.20;;;1.10;;
11588;SDS011;5850;51.360;12.362;2022-12-29T08:29:08;1.23;;;1.13;;
11588;SDS011;5850;51.360;12.362;2022-12-29T08:31:37;4.40;;;1.70;;
11588;SDS011;5850;51.360;12.362;2022-12-29T08:34:05;2.53;;;1.30;;
11588;SDS011;5850;51.360;12.362;2022-12-29T08:36:33;2.13;;;1.50;;
11588;SDS011;5850;51.360;12.362;2022-12-29T08:39:02;3.10;;;1.30;;
11588;SDS011;5850;51.360;12.362;2022-12-29T08:41:30;3.00;;;1.10;;
11588;SDS011;5850;51.360;12.362;2022-12-29T08:43:58;2.03;;;1.50;;
11588;SDS011;5850;51.360;12.362;2022-12-29T08:46:27;2.03;;;1.73;;
11588;SDS011;5850;51.360;12.362;2022-12-29T08:48:55;3.27;;;1.50;;
11588;SDS011;5850;51.360;12.362;2022-12-29T08:51:24;2.03;;;1.40;;
11588;SDS011;5850;51.360;12.362;2022-12-29T08:53:52;2.97;;;1.50;;
11588;SDS011;5850;51.360;12.362;2022-12-29T08:56:21;1.73;;;1.20;;
11588;SDS011;5850;51.360;12.362;2022-12-29T08:58:50;2.73;;;1.30;;
11588;SDS011;5850;51.360;12.362;2022-12-29T09:01:20;1.37;;;1.27;;
11588;SDS011;5850;51.360;12.362;2022-12-29T09:03:49;1.30;;;1.20;;
11588;SDS011;5850;51.360;12.362;2022-12-29T09:06:37;2.43;;;1.20;;
11588;SDS011;5850;51.360;12.362;2022-12-29T09:09:06;1.77;;;1.10;;
11588;SDS011;5850;51.360;12.362;2022-12-29T09:11:34;2.53;;;1.30;;
11588;SDS011;5850;51.360;12.362;2022-12-29T09:14:03;1.70;;;1.30;;
11588;SDS011;5850;51.360;12.362;2022-12-29T09:16:32;1.67;;;1.57;;
11588;SDS011;5850;51.360;12.362;2022-12-29T09:19:01;1.33;;;1.10;;
11588;SDS011;5850;51.360;12.362;2022-12-29T09:21:29;1.93;;;1.17;;
11588;SDS011;5850;51.360;12.362;2022-12-29T09:23:58;2.03;;;1.40;;
11588;SDS011;5850;51.360;12.362;2022-12-29T09:26:26;2.87;;;1.40;;
11588;SDS011;5850;51.360;12.362;2022-12-29T09:28:54;1.47;;;1.07;;
11588;SDS011;5850;51.360;12.362;2022-12-29T09:31:23;1.67;;;1.33;;
11588;SDS011;5850;51.360;12.362;2022-12-29T09:33:52;2.70;;;1.77;;
11588;SDS011;5850;51.360;12.362;2022-12-29T09:36:20;1.87;;;1.37;;
11588;SDS011;5850;51.360;12.362;2022-12-29T09:38:49;2.60;;;1.43;;
11588;SDS011;5850;51.360;12.362;2022-12-29T09:41:20;1.27;;;1.17;;
11588;SDS011;5850;51.360;12.362;2022-12-29T09:44:20;1.53;;;1.43;;
11588;SDS011;5850;51.360;12.362;2022-12-29T09:47:16;2.13;;;1.30;;
11588;SDS011;5850;51.360;12.362;2022-12-29T09:49:54;1.30;;;1.20;;
11588;SDS011;5850;51.360;12.362;2022-12-29T09:52:33;2.93;;;2.30;;
11588;SDS011;5850;51.360;12.362;2022-12-29T09:55:10;2.00;;;1.13;;
11588;SDS011;5850;51.360;12.362;2022-12-29T09:57:45;2.03;;;1.10;;
11588;SDS011;5850;51.360;12.362;2022-12-29T10:03:21;1.80;;;1.43;;
11588;SDS011;5850;51.360;12.362;2022-12-29T10:17:53;1.37;;;1.23;;
11588;SDS011;5850;51.360;12.362;2022-12-29T10:24:15;1.00;;;0.97;;
11588;SDS011;5850;51.360;12.362;2022-12-29T10:26:46;1.23;;;1.00;;
11588;SDS011;5850;51.360;12.362;2022-12-29T10:29:24;1.40;;;1.30;;
11588;SDS011;5850;51.360;12.362;2022-12-29T10:32:14;1.17;;;1.07;;
11588;SDS011;5850;51.360;12.362;2022-12-29T10:37:48;2.10;;;1.20;;
11588;SDS011;5850;51.360;12.362;2022-12-29T10:43:31;1.50;;;1.40;;
11588;SDS011;5850;51.360;12.362;2022-12-29T10:46:14;2.13;;;1.23;;
11588;SDS011;5850;51.360;12.362;2022-12-29T10:48:47;2.70;;;1.37;;
11588;SDS011;5850;51.360;12.362;2022-12-29T10:51:26;1.87;;;1.00;;
11588;SDS011;5850;51.360;12.362;2022-12-29T10:54:05;3.00;;;1.50;;
11588;SDS011;5850;51.360;12.362;2022-12-29T10:56:54;3.60;;;1.03;;
11588;SDS011;5850;51.360;12.362;2022-12-29T10:59:30;1.70;;;1.23;;
11588;SDS011;5850;51.360;12.362;2022-12-29T11:07:30;2.70;;;1.30;;
11588;SDS011;5850;51.360;12.362;2022-12-29T11:10:19;3.30;;;1.87;;
11588;SDS011;5850;51.360;12.362;2022-12-29T11:13:11;2.93;;;1.30;;
11588;SDS011;5850;51.360;12.362;2022-12-29T11:15:59;1.47;;;1.20;;
11588;SDS011;5850;51.360;12.362;2022-12-29T11:18:38;3.17;;;1.00;;
11588;SDS011;5850;51.360;12.362;2022-12-29T11:21:25;2.23;;;1.57;;
11588;SDS011;5850;51.360;12.362;2022-12-29T11:24:02;1.30;;;1.20;;
11588;SDS011;5850;51.360;12.362;2022-12-29T11:26:32;2.10;;;1.20;;
11588;SDS011;5850;51.360;12.362;2022-12-29T11:34:22;1.23;;;1.13;;
11588;SDS011;5850;51.360;12.362;2022-12-29T11:37:16;1.60;;;1.20;;
11588;SDS011;5850;51.360;12.362;2022-12-29T11:40:01;1.30;;;1.20;;
11588;SDS011;5850;51.360;12.362;2022-12-29T11:42:38;2.20;;;1.30;;
11588;SDS011;5850;51.360;12.362;2022-12-29T11:45:20;1.20;;;1.10;;
11588;SDS011;5850;51.360;12.362;2022-12-29T11:47:55;1.30;;;1.20;;
11588;SDS011;5850;51.360;12.362;2022-12-29T11:50:28;1.20;;;1.10;;
11588;SDS011;5850;51.360;12.362;2022-12-29T11:53:00;1.87;;;1.10;;
11588;SDS011;5850;51.360;12.362;2022-12-29T11:55:49;1.30;;;1.20;;
11588;SDS011;5850;51.360;12.362;2022-12-29T11:58:35;2.67;;;1.47;;
11588;SDS011;5850;51.360;12.362;2022-12-29T12:03:42;1.70;;;1.40;;
11588;SDS011;5850;51.360;12.362;2022-12-29T12:06:32;1.87;;;1.27;;
11588;SDS011;5850;51.360;12.362;2022-12-29T12:09:16;3.43;;;1.30;;
11588;SDS011;5850;51.360;12.362;2022-12-29T12:11:54;2.70;;;1.20;;
11588;SDS011;5850;51.360;12.362;2022-12-29T12:14:37;3.07;;;1.40;;
11588;SDS011;5850;51.360;12.362;2022-12-29T12:17:19;1.27;;;1.10;;
11588;SDS011;5850;51.360;12.362;2022-12-29T12:20:04;2.73;;;1.00;;
11588;SDS011;5850;51.360;12.362;2022-12-29T12:26:13;1.07;;;0.97;;
11588;SDS011;5850;51.360;12.362;2022-12-29T12:29:04;2.80;;;1.97;;
11588;SDS011;5850;51.360;12.362;2022-12-29T12:34:16;3.23;;;1.90;;
11588;SDS011;5850;51.360;12.362;2022-12-29T12:59:11;1.50;;;1.40;;
11588;SDS011;5850;51.360;12.362;2022-12-29T13:10:32;2.20;;;1.37;;
11588;SDS011;5850;51.360;12.362;2022-12-29T13:27:14;1.47;;;1.10;;
11588;SDS011;5850;51.360;12.362;2022-12-29T13:30:27;1.47;;;1.10;;
11588;SDS011;5850;51.360;12.362;2022-12-29T13:36:02;2.07;;;1.47;;
11588;SDS011;5850;51.360;12.362;2022-12-29T13:39:02;2.13;;;1.40;;
11588;SDS011;5850;51.360;12.362;2022-12-29T13:41:47;2.40;;;1.47;;
11588;SDS011;5850;51.360;12.362;2022-12-29T13:44:23;1.47;;;1.30;;
11588;SDS011;5850;51.360;12.362;2022-12-29T13:47:22;1.67;;;1.10;;
11588;SDS011;5850;51.360;12.362;2022-12-29T13:49:58;1.97;;;1.37;;
11588;SDS011;5850;51.360;12.362;2022-12-29T13:52:55;2.07;;;1.43;;
11588;SDS011;5850;51.360;12.362;2022-12-29T13:55:39;2.33;;;1.77;;
11588;SDS011;5850;51.360;12.362;2022-12-29T13:58:44;2.93;;;1.37;;
11588;SDS011;5850;51.360;12.362;2022-12-29T14:04:15;2.40;;;1.60;;
11588;SDS011;5850;51.360;12.362;2022-12-29T14:07:04;2.10;;;1.60;;
11588;SDS011;5850;51.360;12.362;2022-12-29T14:09:47;4.90;;;1.70;;
11588;SDS011;5850;51.360;12.362;2022-12-29T14:12:38;1.40;;;1.30;;
11588;SDS011;5850;51.360;12.362;2022-12-29T14:17:39;1.70;;;1.20;;
11588;SDS011;5850;51.360;12.362;2022-12-29T14:20:16;1.30;;;0.90;;
11588;SDS011;5850;51.360;12.362;2022-12-29T14:22:59;4.67;;;1.30;;
11588;SDS011;5850;51.360;12.362;2022-12-29T14:28:44;1.20;;;1.00;;
11588;SDS011;5850;51.360;12.362;2022-12-29T14:34:30;1.83;;;0.80;;
11588;SDS011;5850;51.360;12.362;2022-12-29T14:39:43;1.10;;;0.87;;
11588;SDS011;5850;51.360;12.362;2022-12-29T14:42:13;1.27;;;0.73;;
11588;SDS011;5850;51.360;12.362;2022-12-29T14:45:00;1.20;;;1.10;;
11588;SDS011;5850;51.360;12.362;2022-12-29T14:47:37;1.67;;;1.30;;
11588;SDS011;5850;51.360;12.362;2022-12-29T15:00:58;1.53;;;1.10;;
11588;SDS011;5850;51.360;12.362;2022-12-29T15:03:43;0.90;;;0.80;;
11588;SDS011;5850;51.360;12.362;2022-12-29T15:06:16;2.40;;;0.93;;
11588;SDS011;5850;51.360;12.362;2022-12-29T15:08:53;1.40;;;1.30;;
11588;SDS011;5850;51.360;12.362;2022-12-29T15:17:12;1.50;;;1.40;;
11588;SDS011;5850;51.360;12.362;2022-12-29T15:20:03;1.30;;;1.17;;
11588;SDS011;5850;51.360;12.362;2022-12-29T15:22:50;0.63;;;0.60;;
11588;SDS011;5850;51.360;12.362;2022-12-29T15:25:23;0.70;;;0.63;;
11588;SDS011;5850;51.360;12.362;2022-12-29T15:27:54;1.57;;;0.80;;
11588;SDS011;5850;51.360;12.362;2022-12-29T15:30:28;3.27;;;1.00;;
11588;SDS011;5850;51.360;12.362;2022-12-29T15:32:57;2.10;;;0.93;;
11588;SDS011;5850;51.360;12.362;2022-12-29T15:35:36;2.30;;;0.80;;
11588;SDS011;5850;51.360;12.362;2022-12-29T15:38:15;1.00;;;0.90;;
11588;SDS011;5850;51.360;12.362;2022-12-29T15:41:02;2.47;;;1.23;;
11588;SDS011;5850;51.360;12.362;2022-12-29T15:44:39;4.10;;;3.70;;
11588;SDS011;5850;51.360;12.362;2022-12-29T15:46:53;14.30;;;11.60;;
11588;SDS011;5850;51.360;12.362;2022-12-29T15:49:22;11.17;;;10.07;;
11588;SDS011;5850;51.360;12.362;2022-12-29T15:51:57;4.47;;;3.00;;
11588;SDS011;5850;51.360;12.362;2022-12-29T15:54:27;2.60;;;2.10;;
11588;SDS011;5850;51.360;12.362;2022-12-29T15:56:58;1.10;;;1.00;;
11588;SDS011;5850;51.360;12.362;2022-12-29T15:59:28;1.20;;;1.10;;
11588;SDS011;5850;51.360;12.362;2022-12-29T16:02:00;1.77;;;1.20;;
11588;SDS011;5850;51.360;12.362;2022-12-29T16:04:37;1.10;;;1.00;;
11588;SDS011;5850;51.360;12.362;2022-12-29T16:07:30;2.20;;;0.90;;
11588;SDS011;5850;51.360;12.362;2022-12-29T16:13:04;1.23;;;1.10;;
11588;SDS011;5850;51.360;12.362;2022-12-29T16:15:56;2.70;;;1.10;;
11588;SDS011;5850;51.360;12.362;2022-12-29T16:18:32;1.17;;;1.00;;
11588;SDS011;5850;51.360;12.362;2022-12-29T16:21:04;1.53;;;1.00;;
11588;SDS011;5850;51.360;12.362;2022-12-29T16:23:43;1.90;;;1.17;;
11588;SDS011;5850;51.360;12.362;2022-12-29T16:26:16;2.10;;;1.27;;
11588;SDS011;5850;51.360;12.362;2022-12-29T16:28:47;1.70;;;1.13;;
11588;SDS011;5850;51.360;12.362;2022-12-29T16:37:33;2.60;;;1.60;;
11588;SDS011;5850;51.360;12.362;2022-12-29T16:42:54;2.10;;;1.50;;
11588;SDS011;5850;51.360;12.362;2022-12-29T16:50:48;2.33;;;2.13;;
11588;SDS011;5850;51.360;12.362;2022-12-29T16:53:19;2.60;;;2.00;;
11588;SDS011;5850;51.360;12.362;2022-12-29T16:56:19;3.17;;;2.00;;
11588;SDS011;5850;51.360;12.362;2022-12-29T16:58:52;4.90;;;2.00;;
11588;SDS011;5850;51.360;12.362;2022-12-29T17:01:39;3.83;;;2.30;;
11588;SDS011;5850;51.360;12.362;2022-12-29T17:04:08;3.53;;;2.50;;
11588;SDS011;5850;51.360;12.362;2022-12-29T17:06:38;4.40;;;2.30;;
11588;SDS011;5850;51.360;12.362;2022-12-29T17:09:23;2.83;;;2.40;;
11588;SDS011;5850;51.360;12.362;2022-12-29T17:11:55;2.73;;;2.03;;
11588;SDS011;5850;51.360;12.362;2022-12-29T17:14:40;2.43;;;1.97;;
11588;SDS011;5850;51.360;12.362;2022-12-29T17:17:14;3.67;;;2.00;;
11588;SDS011;5850;51.360;12.362;2022-12-29T17:19:49;5.03;;;2.03;;
11588;SDS011;5850;51.360;12.362;2022-12-29T17:22:21;3.10;;;1.90;;
11588;SDS011;5850;51.360;12.362;2022-12-29T17:24:54;3.20;;;2.30;;
11588;SDS011;5850;51.360;12.362;2022-12-29T17:27:30;2.20;;;2.00;;
11588;SDS011;5850;51.360;12.362;2022-12-29T17:30:15;3.47;;;1.77;;
11588;SDS011;5850;51.360;12.362;2022-12-29T17:32:52;2.70;;;1.97;;
11588;SDS011;5850;51.360;12.362;2022-12-29T17:35:34;2.70;;;1.73;;
11588;SDS011;5850;51.360;12.362;2022-12-29T17:38:08;2.90;;;2.10;;
11588;SDS011;5850;51.360;12.362;2022-12-29T17:40:45;2.53;;;2.20;;
11588;SDS011;5850;51.360;12.362;2022-12-29T17:43:14;2.30;;;2.03;;
11588;SDS011;5850;51.360;12.362;2022-12-29T17:45:43;4.87;;;2.27;;
11588;SDS011;5850;51.360;12.362;2022-12-29T17:48:23;2.87;;;2.00;;
11588;SDS011;5850;51.360;12.362;2022-12-29T17:50:52;2.67;;;2.07;;
11588;SDS011;5850;51.360;12.362;2022-12-29T17:53:24;1.73;;;1.63;;
11588;SDS011;5850;51.360;12.362;2022-12-29T17:55:55;4.10;;;1.90;;
11588;SDS011;5850;51.360;12.362;2022-12-29T17:58:25;3.80;;;1.93;;
11588;SDS011;5850;51.360;12.362;2022-12-29T18:00:57;3.30;;;1.70;;
11588;SDS011;5850;51.360;12.362;2022-12-29T18:06:00;7.10;;;1.93;;
11588;SDS011;5850;51.360;12.362;2022-12-29T18:08:31;1.63;;;1.50;;
11588;SDS011;5850;51.360;12.362;2022-12-29T18:11:25;2.33;;;1.60;;
11588;SDS011;5850;51.360;12.362;2022-12-29T18:13:53;3.70;;;1.73;;
11588;SDS011;5850;51.360;12.362;2022-12-29T18:16:22;2.60;;;1.67;;
11588;SDS011;5850;51.360;12.362;2022-12-29T18:18:50;2.70;;;1.70;;
11588;SDS011;5850;51.360;12.362;2022-12-29T18:21:20;4.10;;;3.20;;
11588;SDS011;5850;51.360;12.362;2022-12-29T18:23:50;3.47;;;2.37;;
11588;SDS011;5850;51.360;12.362;2022-12-29T18:26:20;2.73;;;1.70;;
11588;SDS011;5850;51.360;12.362;2022-12-29T18:28:57;2.20;;;1.57;;
11588;SDS011;5850;51.360;12.362;2022-12-29T18:31:28;3.33;;;1.50;;